sensor_id;sensor_type;location;lat;lon;timestamp;P1;durP1;ratioP1;P2;durP2;ratioP2
64966;SDS011;51710;38.732;-121.358;2022-11-04T00:02:00;0.50;;;0.30;;
64966;SDS011;51710;38.732;-121.358;2022-11-04T00:04:28;0.38;;;0.22;;
64966;SDS011;51710;38.732;-121.358;2022-11-04T00:06:55;0.30;;;0.30;;
64966;SDS011;51710;38.732;-121.358;2022-11-04T00:09:23;0.98;;;0.30;;
64966;SDS011;51710;38.732;-121.358;2022-11-04T00:11:54;0.20;;;0.20;;
64966;SDS011;51710;38.732;-121.358;2022-11-04T00:14:40;0.68;;;0.40;;
64966;SDS011;51710;38.732;-121.358;2022-11-04T00:17:09;1.08;;;0.40;;
64966;SDS011;51710;38.732;-121.358;2022-11-04T00:19:52;0.75;;;0.32;;
64966;SDS011;51710;38.732;-121.358;2022-11-04T00:22:38;0.32;;;0.30;;
64966;SDS011;51710;38.732;-121.358;2022-11-04T00:25:24;0.90;;;0.30;;
64966;SDS011;51710;38.732;-121.358;2022-11-04T00:28:13;1.38;;;0.40;;
64966;SDS011;51710;38.732;-121.358;2022-11-04T00:31:02;0.90;;;0.40;;
64966;SDS011;51710;38.732;-121.358;2022-11-04T00:33:49;0.30;;;0.30;;
64966;SDS011;51710;38.732;-121.358;2022-11-04T00:36:17;0.50;;;0.30;;
64966;SDS011;51710;38.732;-121.358;2022-11-04T00:38:43;0.70;;;0.35;;
64966;SDS011;51710;38.732;-121.358;2022-11-04T00:41:10;0.30;;;0.30;;
64966;SDS011;51710;38.732;-121.358;2022-11-04T00:43:56;0.43;;;0.35;;
64966;SDS011;51710;38.732;-121.358;2022-11-04T00:46:27;0.98;;;0.40;;
64966;SDS011;51710;38.732;-121.358;2022-11-04T00:48:56;0.77;;;0.40;;
64966;SDS011;51710;38.732;-121.358;2022-11-04T00:51:22;0.50;;;0.30;;
64966;SDS011;51710;38.732;-121.358;2022-11-04T00:53:49;0.95;;;0.40;;
64966;SDS011;51710;38.732;-121.358;2022-11-04T00:56:17;0.68;;;0.38;;
64966;SDS011;51710;38.732;-121.358;2022-11-04T00:58:43;1.30;;;0.68;;
64966;SDS011;51710;38.732;-121.358;2022-11-04T01:01:11;0.82;;;0.40;;
64966;SDS011;51710;38.732;-121.358;2022-11-04T01:03:42;0.90;;;0.40;;
64966;SDS011;51710;38.732;-121.358;2022-11-04T01:06:09;1.92;;;0.40;;
64966;SDS011;51710;38.732;-121.358;2022-11-04T01:08:35;1.48;;;0.32;;
64966;SDS011;51710;38.732;-121.358;2022-11-04T01:11:02;0.22;;;0.20;;
64966;SDS011;51710;38.732;-121.358;2022-11-04T01:13:30;1.25;;;0.40;;
64966;SDS011;51710;38.732;-121.358;2022-11-04T01:16:00;0.32;;;0.30;;
64966;SDS011;51710;38.732;-121.358;2022-11-04T01:18:27;1.13;;;0.30;;
64966;SDS011;51710;38.732;-121.358;2022-11-04T01:20:53;0.30;;;0.30;;
64966;SDS011;51710;38.732;-121.358;2022-11-04T01:23:20;0.35;;;0.22;;
64966;SDS011;51710;38.732;-121.358;2022-11-04T01:25:46;1.55;;;0.40;;
64966;SDS011;51710;38.732;-121.358;2022-11-04T01:28:12;1.45;;;0.82;;
64966;SDS011;51710;38.732;-121.358;2022-11-04T01:30:39;0.80;;;0.28;;
64966;SDS011;51710;38.732;-121.358;2022-11-04T01:33:06;0.40;;;0.30;;
64966;SDS011;51710;38.732;-121.358;2022-11-04T01:35:32;1.95;;;0.40;;
64966;SDS011;51710;38.732;-121.358;2022-11-04T01:37:58;0.45;;;0.30;;
64966;SDS011;51710;38.732;-121.358;2022-11-04T01:40:25;0.32;;;0.30;;
64966;SDS011;51710;38.732;-121.358;2022-11-04T01:42:53;1.45;;;0.30;;
64966;SDS011;51710;38.732;-121.358;2022-11-04T01:45:20;0.35;;;0.35;;
64966;SDS011;51710;38.732;-121.358;2022-11-04T01:48:00;0.57;;;0.30;;
64966;SDS011;51710;38.732;-121.358;2022-11-04T01:50:34;0.30;;;0.30;;
64966;SDS011;51710;38.732;-121.358;2022-11-04T01:53:04;1.02;;;0.40;;
64966;SDS011;51710;38.732;-121.358;2022-11-04T01:55:38;0.65;;;0.20;;
64966;SDS011;51710;38.732;-121.358;2022-11-04T01:58:13;1.65;;;0.40;;
64966;SDS011;51710;38.732;-121.358;2022-11-04T02:00:43;1.55;;;0.40;;
64966;SDS011;51710;38.732;-121.358;2022-11-04T02:03:17;1.13;;;0.30;;
64966;SDS011;51710;38.732;-121.358;2022-11-04T02:05:48;0.55;;;0.30;;
64966;SDS011;51710;38.732;-121.358;2022-11-04T02:08:15;0.20;;;0.20;;
64966;SDS011;51710;38.732;-121.358;2022-11-04T02:11:04;1.63;;;0.38;;
64966;SDS011;51710;38.732;-121.358;2022-11-04T02:13:30;0.98;;;0.32;;
64966;SDS011;51710;38.732;-121.358;2022-11-04T02:27:15;0.43;;;0.32;;
64966;SDS011;51710;38.732;-121.358;2022-11-04T02:36:07;0.47;;;0.40;;
64966;SDS011;51710;38.732;-121.358;2022-11-04T02:39:04;0.40;;;0.30;;
64966;SDS011;51710;38.732;-121.358;2022-11-04T02:41:47;1.85;;;0.50;;
64966;SDS011;51710;38.732;-121.358;2022-11-04T02:44:19;4.57;;;0.90;;
64966;SDS011;51710;38.732;-121.358;2022-11-04T02:47:07;1.17;;;0.45;;
64966;SDS011;51710;38.732;-121.358;2022-11-04T02:49:50;1.02;;;0.43;;
64966;SDS011;51710;38.732;-121.358;2022-11-04T02:52:49;1.05;;;0.80;;
64966;SDS011;51710;38.732;-121.358;2022-11-04T02:55:43;0.35;;;0.30;;
64966;SDS011;51710;38.732;-121.358;2022-11-04T02:58:14;1.17;;;0.38;;
64966;SDS011;51710;38.732;-121.358;2022-11-04T03:00:48;2.05;;;0.40;;
64966;SDS011;51710;38.732;-121.358;2022-11-04T03:03:20;1.45;;;0.35;;
64966;SDS011;51710;38.732;-121.358;2022-11-04T03:05:51;1.58;;;0.50;;
64966;SDS011;51710;38.732;-121.358;2022-11-04T03:08:38;1.85;;;0.40;;
64966;SDS011;51710;38.732;-121.358;2022-11-04T03:11:17;0.82;;;0.47;;
64966;SDS011;51710;38.732;-121.358;2022-11-04T03:21:38;2.95;;;0.50;;
64966;SDS011;51710;38.732;-121.358;2022-11-04T03:24:14;0.63;;;0.30;;
64966;SDS011;51710;38.732;-121.358;2022-11-04T03:26:44;0.32;;;0.32;;
64966;SDS011;51710;38.732;-121.358;2022-11-04T03:29:53;0.90;;;0.47;;
64966;SDS011;51710;38.732;-121.358;2022-11-04T03:32:17;0.77;;;0.30;;
64966;SDS011;51710;38.732;-121.358;2022-11-04T03:34:46;5.22;;;0.73;;
64966;SDS011;51710;38.732;-121.358;2022-11-04T03:37:13;0.77;;;0.32;;
64966;SDS011;51710;38.732;-121.358;2022-11-04T03:39:39;2.45;;;0.40;;
64966;SDS011;51710;38.732;-121.358;2022-11-04T03:42:07;0.55;;;0.30;;
64966;SDS011;51710;38.732;-121.358;2022-11-04T03:44:49;1.30;;;0.40;;
64966;SDS011;51710;38.732;-121.358;2022-11-04T03:47:17;0.90;;;0.40;;
64966;SDS011;51710;38.732;-121.358;2022-11-04T03:49:46;0.98;;;0.50;;
64966;SDS011;51710;38.732;-121.358;2022-11-04T03:52:14;1.30;;;0.47;;
64966;SDS011;51710;38.732;-121.358;2022-11-04T03:54:42;0.55;;;0.35;;
64966;SDS011;51710;38.732;-121.358;2022-11-04T03:57:29;0.43;;;0.30;;
64966;SDS011;51710;38.732;-121.358;2022-11-04T04:00:13;1.30;;;0.63;;
64966;SDS011;51710;38.732;-121.358;2022-11-04T04:05:24;3.85;;;1.00;;
64966;SDS011;51710;38.732;-121.358;2022-11-04T04:11:00;0.68;;;0.50;;
64966;SDS011;51710;38.732;-121.358;2022-11-04T04:13:47;0.30;;;0.30;;
64966;SDS011;51710;38.732;-121.358;2022-11-04T04:16:40;1.30;;;0.50;;
64966;SDS011;51710;38.732;-121.358;2022-11-04T04:19:14;0.88;;;0.45;;
64966;SDS011;51710;38.732;-121.358;2022-11-04T04:21:49;2.80;;;0.60;;
64966;SDS011;51710;38.732;-121.358;2022-11-04T04:24:30;1.52;;;0.43;;
64966;SDS011;51710;38.732;-121.358;2022-11-04T04:27:18;1.10;;;0.50;;
64966;SDS011;51710;38.732;-121.358;2022-11-04T04:29:59;0.73;;;0.50;;
64966;SDS011;51710;38.732;-121.358;2022-11-04T04:32:31;0.63;;;0.45;;
64966;SDS011;51710;38.732;-121.358;2022-11-04T04:35:00;0.95;;;0.60;;
64966;SDS011;51710;38.732;-121.358;2022-11-04T04:37:45;2.60;;;0.50;;
64966;SDS011;51710;38.732;-121.358;2022-11-04T04:40:14;0.45;;;0.45;;
64966;SDS011;51710;38.732;-121.358;2022-11-04T04:43:02;1.40;;;0.60;;
64966;SDS011;51710;38.732;-121.358;2022-11-04T04:45:51;0.95;;;0.65;;
64966;SDS011;51710;38.732;-121.358;2022-11-04T04:48:20;1.98;;;0.40;;
64966;SDS011;51710;38.732;-121.358;2022-11-04T04:50:47;1.70;;;0.40;;
64966;SDS011;51710;38.732;-121.358;2022-11-04T04:53:19;0.70;;;0.40;;
64966;SDS011;51710;38.732;-121.358;2022-11-04T04:55:46;1.95;;;0.82;;
64966;SDS011;51710;38.732;-121.358;2022-11-04T04:58:12;2.22;;;1.00;;
64966;SDS011;51710;38.732;-121.358;2022-11-04T05:00:38;3.25;;;1.30;;
64966;SDS011;51710;38.732;-121.358;2022-11-04T05:03:05;3.55;;;0.90;;
64966;SDS011;51710;38.732;-121.358;2022-11-04T05:05:31;2.05;;;0.90;;
64966;SDS011;51710;38.732;-121.358;2022-11-04T05:08:04;1.70;;;0.80;;
64966;SDS011;51710;38.732;-121.358;2022-11-04T05:10:31;7.10;;;1.10;;
64966;SDS011;51710;38.732;-121.358;2022-11-04T05:12:59;2.13;;;1.13;;
64966;SDS011;51710;38.732;-121.358;2022-11-04T05:15:44;2.20;;;0.88;;
64966;SDS011;51710;38.732;-121.358;2022-11-04T05:18:10;3.55;;;1.00;;
64966;SDS011;51710;38.732;-121.358;2022-11-04T05:20:36;2.30;;;0.88;;
64966;SDS011;51710;38.732;-121.358;2022-11-04T05:23:05;4.90;;;0.80;;
64966;SDS011;51710;38.732;-121.358;2022-11-04T05:25:31;1.73;;;0.85;;
64966;SDS011;51710;38.732;-121.358;2022-11-04T05:27:58;2.03;;;0.70;;
64966;SDS011;51710;38.732;-121.358;2022-11-04T05:30:26;1.70;;;1.00;;
64966;SDS011;51710;38.732;-121.358;2022-11-04T05:32:53;1.30;;;0.80;;
64966;SDS011;51710;38.732;-121.358;2022-11-04T05:35:19;1.83;;;0.80;;
64966;SDS011;51710;38.732;-121.358;2022-11-04T05:37:45;1.35;;;0.70;;
64966;SDS011;51710;38.732;-121.358;2022-11-04T05:40:11;3.65;;;1.00;;
64966;SDS011;51710;38.732;-121.358;2022-11-04T05:42:38;1.45;;;0.70;;
64966;SDS011;51710;38.732;-121.358;2022-11-04T05:45:04;1.77;;;0.90;;
64966;SDS011;51710;38.732;-121.358;2022-11-04T05:47:31;2.38;;;1.08;;
64966;SDS011;51710;38.732;-121.358;2022-11-04T05:49:57;3.55;;;0.90;;
64966;SDS011;51710;38.732;-121.358;2022-11-04T05:52:23;2.33;;;0.95;;
64966;SDS011;51710;38.732;-121.358;2022-11-04T05:54:49;1.88;;;0.90;;
64966;SDS011;51710;38.732;-121.358;2022-11-04T05:57:16;1.15;;;0.57;;
64966;SDS011;51710;38.732;-121.358;2022-11-04T05:59:42;3.80;;;0.75;;
64966;SDS011;51710;38.732;-121.358;2022-11-04T06:02:08;5.15;;;0.70;;
64966;SDS011;51710;38.732;-121.358;2022-11-04T06:04:34;1.85;;;0.60;;
64966;SDS011;51710;38.732;-121.358;2022-11-04T06:07:01;3.58;;;0.80;;
64966;SDS011;51710;38.732;-121.358;2022-11-04T06:09:27;1.90;;;0.90;;
64966;SDS011;51710;38.732;-121.358;2022-11-04T06:12:09;1.88;;;0.70;;
64966;SDS011;51710;38.732;-121.358;2022-11-04T06:14:41;1.98;;;0.82;;
64966;SDS011;51710;38.732;-121.358;2022-11-04T06:17:18;2.25;;;0.70;;
64966;SDS011;51710;38.732;-121.358;2022-11-04T06:19:46;1.88;;;0.82;;
64966;SDS011;51710;38.732;-121.358;2022-11-04T06:22:13;1.80;;;0.70;;
64966;SDS011;51710;38.732;-121.358;2022-11-04T06:24:41;3.15;;;1.10;;
64966;SDS011;51710;38.732;-121.358;2022-11-04T06:27:08;3.90;;;0.80;;
64966;SDS011;51710;38.732;-121.358;2022-11-04T06:29:35;3.33;;;0.85;;
64966;SDS011;51710;38.732;-121.358;2022-11-04T06:32:09;0.85;;;0.60;;
64966;SDS011;51710;38.732;-121.358;2022-11-04T06:34:37;2.20;;;0.75;;
64966;SDS011;51710;38.732;-121.358;2022-11-04T06:37:04;1.80;;;0.70;;
64966;SDS011;51710;38.732;-121.358;2022-11-04T06:39:30;1.05;;;0.70;;
64966;SDS011;51710;38.732;-121.358;2022-11-04T06:41:57;1.85;;;0.70;;
64966;SDS011;51710;38.732;-121.358;2022-11-04T06:44:23;1.17;;;0.52;;
64966;SDS011;51710;38.732;-121.358;2022-11-04T06:46:49;2.33;;;0.80;;
64966;SDS011;51710;38.732;-121.358;2022-11-04T06:49:16;2.20;;;1.02;;
64966;SDS011;51710;38.732;-121.358;2022-11-04T06:51:45;1.77;;;0.80;;
64966;SDS011;51710;38.732;-121.358;2022-11-04T06:54:12;3.53;;;0.80;;
64966;SDS011;51710;38.732;-121.358;2022-11-04T06:56:40;2.67;;;0.85;;
64966;SDS011;51710;38.732;-121.358;2022-11-04T06:59:06;3.72;;;1.50;;
64966;SDS011;51710;38.732;-121.358;2022-11-04T07:01:34;5.35;;;1.60;;
64966;SDS011;51710;38.732;-121.358;2022-11-04T07:04:01;3.05;;;1.10;;
64966;SDS011;51710;38.732;-121.358;2022-11-04T07:06:29;4.28;;;1.40;;
64966;SDS011;51710;38.732;-121.358;2022-11-04T07:08:57;2.47;;;1.30;;
64966;SDS011;51710;38.732;-121.358;2022-11-04T07:11:24;2.72;;;1.27;;
64966;SDS011;51710;38.732;-121.358;2022-11-04T07:13:53;4.03;;;1.25;;
64966;SDS011;51710;38.732;-121.358;2022-11-04T07:16:20;6.63;;;1.67;;
64966;SDS011;51710;38.732;-121.358;2022-11-04T07:18:46;3.83;;;1.20;;
64966;SDS011;51710;38.732;-121.358;2022-11-04T07:21:13;2.63;;;1.20;;
64966;SDS011;51710;38.732;-121.358;2022-11-04T07:23:40;3.25;;;1.20;;
64966;SDS011;51710;38.732;-121.358;2022-11-04T07:26:07;2.58;;;1.23;;
64966;SDS011;51710;38.732;-121.358;2022-11-04T07:28:35;2.58;;;1.05;;
64966;SDS011;51710;38.732;-121.358;2022-11-04T07:31:03;3.40;;;1.50;;
64966;SDS011;51710;38.732;-121.358;2022-11-04T07:33:31;4.10;;;1.40;;
64966;SDS011;51710;38.732;-121.358;2022-11-04T07:35:58;4.45;;;1.67;;
64966;SDS011;51710;38.732;-121.358;2022-11-04T07:38:29;3.58;;;1.67;;
64966;SDS011;51710;38.732;-121.358;2022-11-04T07:40:56;3.42;;;1.70;;
64966;SDS011;51710;38.732;-121.358;2022-11-04T07:43:23;3.75;;;1.83;;
64966;SDS011;51710;38.732;-121.358;2022-11-04T07:46:01;4.05;;;1.20;;
64966;SDS011;51710;38.732;-121.358;2022-11-04T07:48:33;2.92;;;1.63;;
64966;SDS011;51710;38.732;-121.358;2022-11-04T07:51:01;2.72;;;1.92;;
64966;SDS011;51710;38.732;-121.358;2022-11-04T07:53:28;6.25;;;1.42;;
64966;SDS011;51710;38.732;-121.358;2022-11-04T07:55:55;3.95;;;1.95;;
64966;SDS011;51710;38.732;-121.358;2022-11-04T07:58:22;3.95;;;1.77;;
64966;SDS011;51710;38.732;-121.358;2022-11-04T08:00:50;2.72;;;1.40;;
64966;SDS011;51710;38.732;-121.358;2022-11-04T08:03:21;3.97;;;1.70;;
64966;SDS011;51710;38.732;-121.358;2022-11-04T08:05:53;4.28;;;1.58;;
64966;SDS011;51710;38.732;-121.358;2022-11-04T08:08:20;2.95;;;1.45;;
64966;SDS011;51710;38.732;-121.358;2022-11-04T08:10:56;5.03;;;2.05;;
64966;SDS011;51710;38.732;-121.358;2022-11-04T08:13:28;3.13;;;1.33;;
64966;SDS011;51710;38.732;-121.358;2022-11-04T08:15:59;4.85;;;1.58;;
64966;SDS011;51710;38.732;-121.358;2022-11-04T08:18:31;5.07;;;2.07;;
64966;SDS011;51710;38.732;-121.358;2022-11-04T08:20:58;3.58;;;1.60;;
64966;SDS011;51710;38.732;-121.358;2022-11-04T08:23:26;3.05;;;1.60;;
64966;SDS011;51710;38.732;-121.358;2022-11-04T08:25:53;5.22;;;1.90;;
64966;SDS011;51710;38.732;-121.358;2022-11-04T08:28:20;2.60;;;1.40;;
64966;SDS011;51710;38.732;-121.358;2022-11-04T08:30:52;4.15;;;1.77;;
64966;SDS011;51710;38.732;-121.358;2022-11-04T08:33:19;5.10;;;1.80;;
64966;SDS011;51710;38.732;-121.358;2022-11-04T08:35:46;4.32;;;1.85;;
64966;SDS011;51710;38.732;-121.358;2022-11-04T08:38:13;5.45;;;2.00;;
64966;SDS011;51710;38.732;-121.358;2022-11-04T08:40:40;4.22;;;2.20;;
64966;SDS011;51710;38.732;-121.358;2022-11-04T08:43:07;7.00;;;1.92;;
64966;SDS011;51710;38.732;-121.358;2022-11-04T08:45:37;7.53;;;2.08;;
64966;SDS011;51710;38.732;-121.358;2022-11-04T08:48:04;5.13;;;2.20;;
64966;SDS011;51710;38.732;-121.358;2022-11-04T08:50:31;6.18;;;2.38;;
64966;SDS011;51710;38.732;-121.358;2022-11-04T08:52:57;5.97;;;2.40;;
64966;SDS011;51710;38.732;-121.358;2022-11-04T08:55:23;4.30;;;2.17;;
64966;SDS011;51710;38.732;-121.358;2022-11-04T08:57:49;6.60;;;2.45;;
64966;SDS011;51710;38.732;-121.358;2022-11-04T09:00:16;6.50;;;2.25;;
64966;SDS011;51710;38.732;-121.358;2022-11-04T09:05:17;4.57;;;1.80;;
64966;SDS011;51710;38.732;-121.358;2022-11-04T09:07:44;7.53;;;2.10;;
64966;SDS011;51710;38.732;-121.358;2022-11-04T09:10:10;4.75;;;1.52;;
64966;SDS011;51710;38.732;-121.358;2022-11-04T09:12:36;5.55;;;1.92;;
64966;SDS011;51710;38.732;-121.358;2022-11-04T09:15:03;3.83;;;1.77;;
64966;SDS011;51710;38.732;-121.358;2022-11-04T09:17:30;6.28;;;2.20;;
64966;SDS011;51710;38.732;-121.358;2022-11-04T09:19:56;4.82;;;1.63;;
64966;SDS011;51710;38.732;-121.358;2022-11-04T09:22:23;4.38;;;1.85;;
64966;SDS011;51710;38.732;-121.358;2022-11-04T09:24:49;6.25;;;2.22;;
64966;SDS011;51710;38.732;-121.358;2022-11-04T09:27:15;4.70;;;2.35;;
64966;SDS011;51710;38.732;-121.358;2022-11-04T09:29:41;3.60;;;1.92;;
64966;SDS011;51710;38.732;-121.358;2022-11-04T09:32:08;5.07;;;2.47;;
64966;SDS011;51710;38.732;-121.358;2022-11-04T09:34:34;5.65;;;2.10;;
64966;SDS011;51710;38.732;-121.358;2022-11-04T09:37:00;5.10;;;2.15;;
64966;SDS011;51710;38.732;-121.358;2022-11-04T09:39:27;5.30;;;2.30;;
64966;SDS011;51710;38.732;-121.358;2022-11-04T09:44:57;4.05;;;2.08;;
64966;SDS011;51710;38.732;-121.358;2022-11-04T09:47:29;5.03;;;2.20;;
64966;SDS011;51710;38.732;-121.358;2022-11-04T09:49:58;5.22;;;2.10;;
64966;SDS011;51710;38.732;-121.358;2022-11-04T09:55:16;5.38;;;2.25;;
64966;SDS011;51710;38.732;-121.358;2022-11-04T09:58:00;5.38;;;2.33;;
64966;SDS011;51710;38.732;-121.358;2022-11-04T10:00:29;5.95;;;2.20;;
64966;SDS011;51710;38.732;-121.358;2022-11-04T10:08:37;5.82;;;2.08;;
64966;SDS011;51710;38.732;-121.358;2022-11-04T10:16:59;3.63;;;2.10;;
64966;SDS011;51710;38.732;-121.358;2022-11-04T10:22:27;5.43;;;2.25;;
64966;SDS011;51710;38.732;-121.358;2022-11-04T10:25:06;5.22;;;2.50;;
64966;SDS011;51710;38.732;-121.358;2022-11-04T10:27:38;6.57;;;2.95;;
64966;SDS011;51710;38.732;-121.358;2022-11-04T10:30:19;4.95;;;2.53;;
64966;SDS011;51710;38.732;-121.358;2022-11-04T10:38:10;5.30;;;2.08;;
64966;SDS011;51710;38.732;-121.358;2022-11-04T10:40:48;5.38;;;2.63;;
64966;SDS011;51710;38.732;-121.358;2022-11-04T10:43:23;5.25;;;2.65;;
64966;SDS011;51710;38.732;-121.358;2022-11-04T10:48:49;5.55;;;2.60;;
64966;SDS011;51710;38.732;-121.358;2022-11-04T10:51:34;6.25;;;2.53;;
64966;SDS011;51710;38.732;-121.358;2022-11-04T10:54:00;6.82;;;2.42;;
64966;SDS011;51710;38.732;-121.358;2022-11-04T10:58:57;6.15;;;2.25;;
64966;SDS011;51710;38.732;-121.358;2022-11-04T11:01:52;4.90;;;2.40;;
64966;SDS011;51710;38.732;-121.358;2022-11-04T11:07:02;6.10;;;2.47;;
64966;SDS011;51710;38.732;-121.358;2022-11-04T11:09:40;5.80;;;2.28;;
64966;SDS011;51710;38.732;-121.358;2022-11-04T11:14:41;5.75;;;2.75;;
64966;SDS011;51710;38.732;-121.358;2022-11-04T11:19:56;6.13;;;2.92;;
64966;SDS011;51710;38.732;-121.358;2022-11-04T11:22:28;6.43;;;2.65;;
64966;SDS011;51710;38.732;-121.358;2022-11-04T11:25:11;5.05;;;2.40;;
64966;SDS011;51710;38.732;-121.358;2022-11-04T11:28:11;8.95;;;3.15;;
64966;SDS011;51710;38.732;-121.358;2022-11-04T11:30:59;4.45;;;2.50;;
64966;SDS011;51710;38.732;-121.358;2022-11-04T11:33:32;5.90;;;2.78;;
64966;SDS011;51710;38.732;-121.358;2022-11-04T11:36:05;5.93;;;2.75;;
64966;SDS011;51710;38.732;-121.358;2022-11-04T11:38:53;6.32;;;2.92;;
64966;SDS011;51710;38.732;-121.358;2022-11-04T11:41:21;7.38;;;3.03;;
64966;SDS011;51710;38.732;-121.358;2022-11-04T11:43:57;5.70;;;2.78;;
64966;SDS011;51710;38.732;-121.358;2022-11-04T11:46:28;5.05;;;2.60;;
64966;SDS011;51710;38.732;-121.358;2022-11-04T11:48:58;7.18;;;2.70;;
64966;SDS011;51710;38.732;-121.358;2022-11-04T11:51:28;7.45;;;2.90;;
64966;SDS011;51710;38.732;-121.358;2022-11-04T11:54:01;5.60;;;2.38;;
64966;SDS011;51710;38.732;-121.358;2022-11-04T11:56:51;6.72;;;2.67;;
64966;SDS011;51710;38.732;-121.358;2022-11-04T12:02:12;4.75;;;2.42;;
64966;SDS011;51710;38.732;-121.358;2022-11-04T12:04:52;4.68;;;2.22;;
64966;SDS011;51710;38.732;-121.358;2022-11-04T12:07:40;3.95;;;2.20;;
64966;SDS011;51710;38.732;-121.358;2022-11-04T12:21:27;6.35;;;2.17;;
64966;SDS011;51710;38.732;-121.358;2022-11-04T12:38:14;6.70;;;2.20;;
64966;SDS011;51710;38.732;-121.358;2022-11-04T12:57:55;6.20;;;2.20;;
64966;SDS011;51710;38.732;-121.358;2022-11-04T13:00:35;5.13;;;2.30;;
64966;SDS011;51710;38.732;-121.358;2022-11-04T13:05:55;4.95;;;2.30;;
64966;SDS011;51710;38.732;-121.358;2022-11-04T13:11:07;5.95;;;2.22;;
64966;SDS011;51710;38.732;-121.358;2022-11-04T13:13:52;4.68;;;2.15;;
64966;SDS011;51710;38.732;-121.358;2022-11-04T13:16:24;5.57;;;2.47;;
64966;SDS011;51710;38.732;-121.358;2022-11-04T13:18:54;4.30;;;2.03;;
64966;SDS011;51710;38.732;-121.358;2022-11-04T13:21:26;5.60;;;2.25;;
64966;SDS011;51710;38.732;-121.358;2022-11-04T13:23:57;6.30;;;2.63;;
64966;SDS011;51710;38.732;-121.358;2022-11-04T13:26:30;6.55;;;2.17;;
64966;SDS011;51710;38.732;-121.358;2022-11-04T13:29:03;3.75;;;1.85;;
64966;SDS011;51710;38.732;-121.358;2022-11-04T13:31:37;4.90;;;2.08;;
64966;SDS011;51710;38.732;-121.358;2022-11-04T13:34:31;6.93;;;2.45;;
64966;SDS011;51710;38.732;-121.358;2022-11-04T13:37:27;4.18;;;2.30;;
64966;SDS011;51710;38.732;-121.358;2022-11-04T13:40:05;4.30;;;2.08;;
64966;SDS011;51710;38.732;-121.358;2022-11-04T13:46:25;4.00;;;2.05;;
64966;SDS011;51710;38.732;-121.358;2022-11-04T13:51:40;4.30;;;2.30;;
64966;SDS011;51710;38.732;-121.358;2022-11-04T13:54:30;4.90;;;2.03;;
64966;SDS011;51710;38.732;-121.358;2022-11-04T13:59:36;4.80;;;2.13;;
64966;SDS011;51710;38.732;-121.358;2022-11-04T14:04:39;4.20;;;2.35;;
64966;SDS011;51710;38.732;-121.358;2022-11-04T14:07:08;7.85;;;3.22;;
64966;SDS011;51710;38.732;-121.358;2022-11-04T14:14:44;5.10;;;2.13;;
64966;SDS011;51710;38.732;-121.358;2022-11-04T14:20:00;6.10;;;2.55;;
64966;SDS011;51710;38.732;-121.358;2022-11-04T14:22:53;6.97;;;2.88;;
64966;SDS011;51710;38.732;-121.358;2022-11-04T14:30:36;4.53;;;2.25;;
64966;SDS011;51710;38.732;-121.358;2022-11-04T14:41:32;4.85;;;2.35;;
64966;SDS011;51710;38.732;-121.358;2022-11-04T14:44:19;6.20;;;2.17;;
64966;SDS011;51710;38.732;-121.358;2022-11-04T14:46:47;5.38;;;2.50;;
64966;SDS011;51710;38.732;-121.358;2022-11-04T14:49:35;5.43;;;2.60;;
64966;SDS011;51710;38.732;-121.358;2022-11-04T14:52:27;6.15;;;2.80;;
64966;SDS011;51710;38.732;-121.358;2022-11-04T14:55:18;5.15;;;2.67;;
64966;SDS011;51710;38.732;-121.358;2022-11-04T14:57:45;4.70;;;2.33;;
64966;SDS011;51710;38.732;-121.358;2022-11-04T15:05:47;7.28;;;2.60;;
64966;SDS011;51710;38.732;-121.358;2022-11-04T15:11:06;6.25;;;2.53;;
64966;SDS011;51710;38.732;-121.358;2022-11-04T15:13:36;4.80;;;2.15;;
64966;SDS011;51710;38.732;-121.358;2022-11-04T15:16:21;5.57;;;2.03;;
64966;SDS011;51710;38.732;-121.358;2022-11-04T15:18:50;6.43;;;2.13;;
64966;SDS011;51710;38.732;-121.358;2022-11-04T15:21:19;5.03;;;2.10;;
64966;SDS011;51710;38.732;-121.358;2022-11-04T15:23:46;4.47;;;2.17;;
64966;SDS011;51710;38.732;-121.358;2022-11-04T15:26:27;3.85;;;1.67;;
64966;SDS011;51710;38.732;-121.358;2022-11-04T15:28:56;3.58;;;1.95;;
64966;SDS011;51710;38.732;-121.358;2022-11-04T15:31:32;7.75;;;3.10;;
64966;SDS011;51710;38.732;-121.358;2022-11-04T15:34:01;5.50;;;2.20;;
64966;SDS011;51710;38.732;-121.358;2022-11-04T15:36:34;7.93;;;2.33;;
64966;SDS011;51710;38.732;-121.358;2022-11-04T15:39:21;3.72;;;2.08;;
64966;SDS011;51710;38.732;-121.358;2022-11-04T15:41:54;5.95;;;1.83;;
64966;SDS011;51710;38.732;-121.358;2022-11-04T15:44:44;6.50;;;2.13;;
64966;SDS011;51710;38.732;-121.358;2022-11-04T15:49:44;5.20;;;2.00;;
64966;SDS011;51710;38.732;-121.358;2022-11-04T15:52:13;4.40;;;1.85;;
64966;SDS011;51710;38.732;-121.358;2022-11-04T15:54:51;7.90;;;1.77;;
64966;SDS011;51710;38.732;-121.358;2022-11-04T15:57:32;3.83;;;2.00;;
64966;SDS011;51710;38.732;-121.358;2022-11-04T16:02:32;4.45;;;1.85;;
64966;SDS011;51710;38.732;-121.358;2022-11-04T16:12:57;3.75;;;2.00;;
64966;SDS011;51710;38.732;-121.358;2022-11-04T16:15:43;4.80;;;2.00;;
64966;SDS011;51710;38.732;-121.358;2022-11-04T16:18:24;3.88;;;1.83;;
64966;SDS011;51710;38.732;-121.358;2022-11-04T16:20:52;3.92;;;1.65;;
64966;SDS011;51710;38.732;-121.358;2022-11-04T16:23:20;3.45;;;1.50;;
64966;SDS011;51710;38.732;-121.358;2022-11-04T16:26:03;6.38;;;1.95;;
64966;SDS011;51710;38.732;-121.358;2022-11-04T16:28:34;2.58;;;1.50;;
64966;SDS011;51710;38.732;-121.358;2022-11-04T16:31:03;3.55;;;1.63;;
64966;SDS011;51710;38.732;-121.358;2022-11-04T16:33:40;4.75;;;1.48;;
64966;SDS011;51710;38.732;-121.358;2022-11-04T16:36:09;3.35;;;1.60;;
64966;SDS011;51710;38.732;-121.358;2022-11-04T16:38:57;4.15;;;1.60;;
64966;SDS011;51710;38.732;-121.358;2022-11-04T16:41:26;3.38;;;1.52;;
64966;SDS011;51710;38.732;-121.358;2022-11-04T16:43:54;3.45;;;1.45;;
64966;SDS011;51710;38.732;-121.358;2022-11-04T16:46:21;3.13;;;1.30;;
64966;SDS011;51710;38.732;-121.358;2022-11-04T16:48:50;3.38;;;1.65;;
64966;SDS011;51710;38.732;-121.358;2022-11-04T16:51:19;6.32;;;1.48;;
64966;SDS011;51710;38.732;-121.358;2022-11-04T16:53:47;3.40;;;1.30;;
64966;SDS011;51710;38.732;-121.358;2022-11-04T16:56:19;3.33;;;1.40;;
64966;SDS011;51710;38.732;-121.358;2022-11-04T16:58:47;2.85;;;1.60;;
64966;SDS011;51710;38.732;-121.358;2022-11-04T17:01:14;2.60;;;1.10;;
64966;SDS011;51710;38.732;-121.358;2022-11-04T17:03:41;3.92;;;1.50;;
64966;SDS011;51710;38.732;-121.358;2022-11-04T17:06:08;4.60;;;2.55;;
64966;SDS011;51710;38.732;-121.358;2022-11-04T17:08:35;4.57;;;2.70;;
64966;SDS011;51710;38.732;-121.358;2022-11-04T17:11:02;2.08;;;1.35;;
64966;SDS011;51710;38.732;-121.358;2022-11-04T17:13:29;3.05;;;1.40;;
64966;SDS011;51710;38.732;-121.358;2022-11-04T17:15:56;3.08;;;1.30;;
64966;SDS011;51710;38.732;-121.358;2022-11-04T17:18:22;15.23;;;5.78;;
64966;SDS011;51710;38.732;-121.358;2022-11-04T17:20:53;13.70;;;5.32;;
64966;SDS011;51710;38.732;-121.358;2022-11-04T17:23:20;10.65;;;4.10;;
64966;SDS011;51710;38.732;-121.358;2022-11-04T17:25:47;4.28;;;1.88;;
64966;SDS011;51710;38.732;-121.358;2022-11-04T17:28:14;2.78;;;1.25;;
64966;SDS011;51710;38.732;-121.358;2022-11-04T17:30:40;2.25;;;1.13;;
64966;SDS011;51710;38.732;-121.358;2022-11-04T17:33:14;1.20;;;0.80;;
64966;SDS011;51710;38.732;-121.358;2022-11-04T17:35:43;3.30;;;0.80;;